Terminal Aerodrome Forecast
Issued by NWS

Home | Current Version | Previous Version | Graphics & Text | Print | Product List | Glossary On
Versions: 1 2 3 4 5 6 7 8 9 10 11 12 13 14
884
FTUS43 KABR 160524
TAFATY
TAF
KATY 160524Z 1606/1706 35014KT P6SM OVC012
     FM161300 32007KT P6SM SCT015
     FM161600 23005KT P6SM SCT250=

USA.gov is the U.S. government's official web portal to all federal, state and local government web resources and services.